Estación Meteorológica Peña el Pijo (Robertgarden) [ 11/20/17 01:25:50 CET ]

Fecha Hora Presion(HPa) Temp (°C) Humedad % Rocio (°C) Viento ( m/s) Direccion Lluvia 1Hora(mm) Lluvia 24H(mm) LLuvia Total(mm)
2017-Nov-18 01:01:29 1010.700 1.3 62 -5.2         1468.01
2017-Nov-18 02:01:40 1010.400 1.0 64 -5.1         1468.01
2017-Nov-18 03:03:10 1010.100 0.2 66 -5.4         1468.01
2017-Nov-18 04:01:23 1009.800 0.1 67 -5.1         1468.01
2017-Nov-18 05:01:32 1009.700 -0.8 67 -6.2         1468.01
2017-Nov-18 06:01:21 1009.500 -0.7 67 -6.0         1468.01
2017-Nov-18 07:01:16 1009.400 -1.4 68 -6.6         1468.01
2017-Nov-18 08:01:48 1009.700 -1.8 68 -6.9         1468.01
2017-Nov-18 09:01:33 1010.300 -1.2 70 -6.0         1468.01
2017-Nov-18 10:01:23 1010.100 9.1 47 -1.7         1468.01
2017-Nov-18 11:01:39 1009.900 15.6 30 -1.9         1468.01
2017-Nov-18 12:02:00 1009.500 18.5 24 -2.7         1468.01
2017-Nov-18 13:01:37 1008.700 20.2 23 -1.8         1468.01
2017-Nov-18 14:01:41 1008.200 21.4 21 -1.9 0.6 ENE     1468.01
2017-Nov-18 15:01:55 1007.900 20.6 21 -2.6         1468.01
2017-Nov-18 16:01:54 1008.100 19.6 22 -2.9 0.4 S     1468.01
2017-Nov-18 17:01:55 1008.300 16.8 27 -2.5 2.5 S     1468.01
2017-Nov-18 18:01:38 1008.900 14.1 32 -2.4         1468.01
2017-Nov-18 19:01:31 1009.600 9.9 39 -3.5         1468.01
2017-Nov-18 20:02:06 1010.100 5.9 48 -4.3         1468.01
2017-Nov-18 21:01:50 1010.500 3.9 54 -4.6         1468.01
2017-Nov-18 22:02:07 1011.000 2.8 58 -4.7         1468.01
2017-Nov-18 23:01:46 1010.900 1.8 61 -4.9         1468.01

Temperatura Máxima:21°    Temperatura Mínima:-1°
Presión Máxima:1011.000 Hpa    Presión Mínima:1007.900 Hpa


Volver